createdAt,value
2018-05-26T00:00:04.357Z,13.73
2018-05-26T00:05:04.350Z,13.53
2018-05-26T00:10:04.349Z,13.35
2018-05-26T00:15:04.369Z,13.14
2018-05-26T00:20:04.360Z,12.99
2018-05-26T00:25:04.375Z,12.88
2018-05-26T00:30:04.375Z,12.71
2018-05-26T00:35:04.365Z,12.53
2018-05-26T00:40:04.371Z,12.43
2018-05-26T00:45:04.388Z,12.4
2018-05-26T00:50:04.393Z,12.38
2018-05-26T00:55:04.381Z,12.38
2018-05-26T01:00:04.391Z,12.36
2018-05-26T01:05:04.402Z,12.25
2018-05-26T01:10:04.400Z,12.14
2018-05-26T01:15:04.395Z,11.97
2018-05-26T01:20:04.404Z,11.87
2018-05-26T01:25:03.386Z,11.88
2018-05-26T01:30:03.396Z,11.86
2018-05-26T01:35:03.423Z,11.78
2018-05-26T01:40:03.406Z,11.69
2018-05-26T01:45:03.397Z,11.58
2018-05-26T01:50:03.427Z,11.49
2018-05-26T01:55:03.404Z,11.36
2018-05-26T02:00:03.408Z,11.23
2018-05-26T02:05:03.414Z,11.17
2018-05-26T02:10:03.422Z,11.13
2018-05-26T02:15:03.421Z,11.09
2018-05-26T02:20:03.425Z,11.04
2018-05-26T02:25:03.442Z,10.92
2018-05-26T02:30:03.427Z,10.8
2018-05-26T02:35:03.425Z,10.66
2018-05-26T02:40:03.454Z,10.52
2018-05-26T02:45:03.431Z,10.41
2018-05-26T02:50:03.442Z,10.34
2018-05-26T02:55:03.463Z,10.28
2018-05-26T03:00:03.439Z,10.23
2018-05-26T03:05:03.441Z,10.11
2018-05-26T03:10:03.468Z,10.03
2018-05-26T03:15:03.456Z,9.99
2018-05-26T03:20:03.448Z,10.08
2018-05-26T03:25:03.468Z,10.14
2018-05-26T03:30:03.461Z,10.09
2018-05-26T03:35:03.459Z,10.06
2018-05-26T03:40:03.478Z,10.07
2018-05-26T03:45:03.466Z,10.14
2018-05-26T03:50:03.466Z,10.38
2018-05-26T03:55:03.471Z,10.67
2018-05-26T04:00:03.484Z,10.95
2018-05-26T04:05:03.476Z,11.11
2018-05-26T04:10:03.477Z,11.25
2018-05-26T04:15:03.493Z,11.38
2018-05-26T04:20:03.490Z,11.47
2018-05-26T04:25:03.484Z,11.58
2018-05-26T04:30:03.495Z,11.78
2018-05-26T04:35:03.492Z,11.96
2018-05-26T04:40:03.492Z,12.13
2018-05-26T04:45:03.518Z,12.25
2018-05-26T04:50:03.499Z,12.42
2018-05-26T04:55:03.501Z,12.61
2018-05-26T05:00:03.502Z,12.72
2018-05-26T05:05:03.525Z,12.89
2018-05-26T05:10:03.506Z,13.07
2018-05-26T05:15:03.510Z,13.3
2018-05-26T05:20:03.537Z,13.49
2018-05-26T05:25:03.524Z,13.67
2018-05-26T05:30:03.522Z,13.84
2018-05-26T05:35:03.529Z,14.01
2018-05-26T05:40:03.545Z,14.22
2018-05-26T05:45:03.539Z,14.45
2018-05-26T05:50:03.531Z,14.67
2018-05-26T05:55:03.541Z,14.87
2018-05-26T06:00:03.533Z,15.06
2018-05-26T06:05:03.543Z,15.27
2018-05-26T06:10:03.562Z,15.48
2018-05-26T06:15:03.560Z,15.88
2018-05-26T06:20:03.550Z,16.12
2018-05-26T06:25:03.565Z,16.4
2018-05-26T06:30:03.555Z,16.64
2018-05-26T06:35:03.560Z,16.91
2018-05-26T06:40:03.571Z,17.13
2018-05-26T06:45:03.559Z,17.46
2018-05-26T06:50:03.564Z,18.34
2018-05-26T06:55:03.579Z,19.5
2018-05-26T07:00:03.567Z,20.6
2018-05-26T07:05:03.567Z,21.65
2018-05-26T07:10:03.592Z,22.36
2018-05-26T07:15:03.584Z,23.32
2018-05-26T07:20:03.576Z,24.42
2018-05-26T07:25:03.594Z,24.75
2018-05-26T07:30:03.584Z,25.14
2018-05-26T07:35:03.587Z,25.77
2018-05-26T07:40:03.604Z,25.95
2018-05-26T07:45:03.598Z,25.72
2018-05-26T07:50:03.594Z,25.87
2018-05-26T07:55:03.604Z,26.43
2018-05-26T08:00:03.615Z,26.9
2018-05-26T08:05:03.604Z,27.41
2018-05-26T08:10:03.623Z,27.11
2018-05-26T08:15:03.633Z,27.42
2018-05-26T08:20:03.618Z,27.38
2018-05-26T08:25:03.636Z,27.81
2018-05-26T08:30:03.638Z,28.15
2018-05-26T08:35:03.621Z,27.78
2018-05-26T08:40:03.729Z,28.74
2018-05-26T08:45:03.644Z,29.88
2018-05-26T08:50:03.642Z,29.46
2018-05-26T08:55:03.651Z,28.92
2018-05-26T09:00:03.644Z,29.35
2018-05-26T09:05:03.642Z,29.22
2018-05-26T09:10:03.658Z,29.8
2018-05-26T09:15:03.651Z,29.65
2018-05-26T09:20:03.642Z,30.61
2018-05-26T09:25:03.718Z,30.95
2018-05-26T09:30:03.657Z,31.18
2018-05-26T09:35:03.660Z,30.44
2018-05-26T09:40:03.702Z,30.79
2018-05-26T09:45:03.675Z,30.99
2018-05-26T09:50:03.664Z,29.59
2018-05-26T09:55:03.673Z,29.48
2018-05-26T10:00:03.686Z,29.39
2018-05-26T10:05:03.679Z,30.25
2018-05-26T10:10:03.669Z,30.66
2018-05-26T10:15:03.682Z,31.83
2018-05-26T10:20:03.688Z,32.74
2018-05-26T10:25:03.688Z,33.07
2018-05-26T10:30:03.737Z,33.51
2018-05-26T10:35:03.689Z,33.25
2018-05-26T10:40:03.691Z,32.35
2018-05-26T10:45:03.715Z,31.58
2018-05-26T10:50:03.714Z,31.1
2018-05-26T10:55:03.705Z,30.86
2018-05-26T11:00:03.716Z,30.97
2018-05-26T11:05:03.701Z,31.73
2018-05-26T11:10:03.703Z,32.76
2018-05-26T11:15:03.728Z,34.04
2018-05-26T11:20:03.709Z,35.04
2018-05-26T11:25:03.706Z,36.42
2018-05-26T11:30:03.725Z,36.96
2018-05-26T11:35:03.724Z,36.82
2018-05-26T11:40:03.718Z,37.97
2018-05-26T11:45:03.730Z,38.2
2018-05-26T11:50:03.722Z,37.62
2018-05-26T11:55:03.731Z,37.78
2018-05-26T12:00:03.738Z,38.66
2018-05-26T12:05:03.812Z,39.15
2018-05-26T12:10:03.736Z,39.32
2018-05-26T12:15:03.747Z,39.17
2018-05-26T12:20:03.738Z,40.04
2018-05-26T12:25:03.746Z,40.9
2018-05-26T12:30:03.754Z,40.48
2018-05-26T12:35:03.743Z,38.02
2018-05-26T12:45:03.761Z,37.85
2018-05-26T12:50:03.751Z,38.4
2018-05-26T12:55:03.762Z,38.55
2018-05-26T13:00:03.780Z,39.27
2018-05-26T13:05:03.765Z,39.32
2018-05-26T13:10:03.768Z,38.69
2018-05-26T13:15:03.769Z,37.43
2018-05-26T13:20:03.786Z,36.1
2018-05-26T13:25:03.774Z,34.94
2018-05-26T13:30:03.776Z,33.89
2018-05-26T13:35:03.780Z,32.75
2018-05-26T13:40:03.803Z,32.81
2018-05-26T13:45:03.790Z,33.73
2018-05-26T13:50:03.787Z,33.91
2018-05-26T13:55:03.795Z,33.97
2018-05-26T14:00:03.806Z,32.11
2018-05-26T14:05:03.799Z,30.55
2018-05-26T14:10:03.798Z,29.89
2018-05-26T14:15:03.814Z,32.87
2018-05-26T14:20:03.802Z,35.94
2018-05-26T14:25:03.808Z,37.42
2018-05-26T14:30:03.820Z,38.83
2018-05-26T14:35:03.816Z,40.51
2018-05-26T14:40:03.809Z,40.43
2018-05-26T14:45:03.825Z,40.27
2018-05-26T14:50:03.923Z,40.66
2018-05-26T14:55:03.827Z,39.38
2018-05-26T15:00:03.839Z,39.07
2018-05-26T15:05:03.824Z,38.44
2018-05-26T15:10:03.837Z,38.41
2018-05-26T15:15:03.855Z,38.86
2018-05-26T15:20:03.846Z,38.29
2018-05-26T15:25:03.842Z,37.46
2018-05-26T15:30:03.859Z,37.18
2018-05-26T15:35:03.860Z,37.38
2018-05-26T15:40:03.860Z,37
2018-05-26T15:45:03.855Z,36.46
2018-05-26T15:50:03.981Z,33.78
2018-05-26T15:55:03.853Z,33.22
2018-05-26T16:00:37.003Z,34.53
2018-05-26T16:05:04.213Z,32.92
2018-05-26T16:10:04.213Z,32.2
2018-05-26T16:15:04.217Z,33.18
2018-05-26T16:20:04.229Z,33.82
2018-05-26T16:25:04.218Z,33.89
2018-05-26T16:30:04.223Z,32.96
2018-05-26T16:35:04.247Z,31.41
2018-05-26T16:40:04.233Z,30.18
2018-05-26T16:45:04.238Z,29.38
2018-05-26T16:50:04.246Z,28.53
2018-05-26T16:55:04.240Z,28.14
2018-05-26T17:00:04.239Z,27.84
2018-05-26T17:05:04.244Z,27.6
2018-05-26T17:10:04.233Z,27.39
2018-05-26T17:15:04.241Z,27.3
2018-05-26T17:20:04.241Z,27.23
2018-05-26T17:25:04.255Z,27.11
2018-05-26T17:30:04.246Z,26.95
2018-05-26T17:35:04.252Z,26.65
2018-05-26T17:40:04.267Z,26.38
2018-05-26T17:45:04.256Z,26.2
2018-05-26T17:50:04.259Z,25.98
2018-05-26T17:55:04.260Z,25.78
2018-05-26T18:00:04.263Z,25.48
2018-05-26T18:05:04.263Z,25.25
2018-05-26T18:10:04.276Z,25.06
2018-05-26T18:15:04.325Z,24.78
2018-05-26T18:20:04.278Z,24.48
2018-05-26T18:25:04.288Z,24.16
2018-05-26T18:30:04.280Z,23.84
2018-05-26T18:35:04.405Z,23.51
2018-05-26T18:40:04.293Z,23.17
2018-05-26T18:45:04.297Z,22.86
2018-05-26T18:50:04.300Z,22.58
2018-05-26T18:55:04.304Z,22.29
2018-05-26T19:00:04.302Z,21.94
2018-05-26T19:05:04.374Z,21.55
2018-05-26T19:10:04.310Z,21.59
2018-05-26T19:15:04.320Z,21.66
2018-05-26T19:20:04.340Z,21.58
2018-05-26T19:25:04.323Z,21.44
2018-05-26T19:30:04.320Z,21.32
2018-05-26T19:35:04.323Z,21.09
2018-05-26T19:40:04.322Z,20.92
2018-05-26T19:45:04.337Z,20.78
2018-05-26T19:50:04.358Z,20.62
2018-05-26T19:55:04.330Z,20.41
2018-05-26T20:00:04.332Z,20.16
2018-05-26T20:05:04.417Z,19.97
2018-05-26T20:10:04.375Z,19.86
2018-05-26T20:15:04.350Z,19.73
